createdAt,value
2018-12-06T00:02:23.559Z,5.98
2018-12-06T00:04:54.520Z,6.04
2018-12-06T00:07:27.063Z,6.01
2018-12-06T00:09:58.155Z,5.94
2018-12-06T00:12:29.417Z,5.96
2018-12-06T00:15:10.624Z,5.96
2018-12-06T00:29:14.659Z,5.95
2018-12-06T00:31:45.309Z,5.95
2018-12-06T00:34:16.124Z,5.96
2018-12-06T00:36:47.115Z,6.00
2018-12-06T00:39:18.419Z,6.09
2018-12-06T00:41:50.696Z,6.11
2018-12-06T00:44:25.493Z,6.12
2018-12-06T00:47:01.179Z,6.12
2018-12-06T00:49:35.417Z,6.16
2018-12-06T00:52:11.488Z,6.13
2018-12-06T00:54:47.670Z,6.11
2018-12-06T00:57:22.219Z,6.12
2018-12-06T00:59:57.439Z,6.22
2018-12-06T01:02:31.539Z,6.27
2018-12-06T01:05:08.059Z,6.24
2018-12-06T01:07:41.743Z,6.31
2018-12-06T01:10:15.791Z,6.35
2018-12-06T01:12:50.367Z,6.32
2018-12-06T01:15:24.429Z,6.34
2018-12-06T01:18:01.095Z,6.32
2018-12-06T01:20:38.333Z,6.37
2018-12-06T01:23:12.113Z,6.32
2018-12-06T01:25:45.667Z,6.28
2018-12-06T01:28:20.214Z,6.31
2018-12-06T01:30:54.554Z,6.25
2018-12-06T01:33:27.241Z,6.28
2018-12-06T01:36:01.368Z,6.25
2018-12-06T01:38:33.828Z,6.24
2018-12-06T01:41:08.917Z,6.21
2018-12-06T01:43:42.511Z,6.30
2018-12-06T01:46:16.842Z,6.36
2018-12-06T01:48:51.469Z,6.33
2018-12-06T01:51:25.869Z,6.29
2018-12-06T01:54:00.010Z,6.25
2018-12-06T01:56:34.029Z,6.34
2018-12-06T01:59:07.109Z,6.31
2018-12-06T02:01:43.411Z,6.32
2018-12-06T02:04:17.669Z,6.28
2018-12-06T02:06:52.257Z,6.32
2018-12-06T02:09:24.268Z,6.28
2018-12-06T02:11:58.862Z,6.30
2018-12-06T02:14:32.757Z,6.28
2018-12-06T02:17:07.201Z,6.27
2018-12-06T02:19:41.964Z,6.34
2018-12-06T02:22:16.306Z,6.23
2018-12-06T02:24:48.008Z,6.30
2018-12-06T02:27:22.340Z,6.26
2018-12-06T02:29:57.002Z,6.29
2018-12-06T02:32:28.697Z,6.28
2018-12-06T02:35:03.458Z,6.26
2018-12-06T02:37:37.377Z,6.24
2018-12-06T02:40:11.764Z,6.23
2018-12-06T02:42:48.264Z,6.30
2018-12-06T02:45:23.181Z,6.31
2018-12-06T02:47:59.993Z,6.33
2018-12-06T02:50:36.680Z,6.36
2018-12-06T02:53:14.069Z,6.38
2018-12-06T02:55:44.703Z,6.44
2018-12-06T02:58:16.756Z,6.41
2018-12-06T03:00:51.067Z,6.48
2018-12-06T03:03:25.588Z,6.48
2018-12-06T03:06:06.025Z,6.46
2018-12-06T03:08:45.878Z,6.49
2018-12-06T03:11:20.362Z,6.45
2018-12-06T03:13:54.222Z,6.44
2018-12-06T03:16:36.512Z,6.48
2018-12-06T03:19:10.276Z,6.56
2018-12-06T03:21:46.853Z,6.59
2018-12-06T03:27:25.037Z,6.62
2018-12-06T03:29:56.841Z,6.61
2018-12-06T03:32:28.951Z,6.57
2018-12-06T03:35:01.042Z,6.60
2018-12-06T03:37:34.921Z,6.61
2018-12-06T03:40:11.442Z,6.60
2018-12-06T03:42:46.234Z,6.68
2018-12-06T03:45:19.831Z,6.67
2018-12-06T03:47:54.301Z,6.71
2018-12-06T03:50:30.893Z,6.74
2018-12-06T03:53:05.934Z,6.70
2018-12-06T03:55:39.989Z,6.70
2018-12-06T03:58:16.632Z,6.68
2018-12-06T04:00:50.410Z,6.62
2018-12-06T04:03:25.220Z,6.59
2018-12-06T04:05:59.439Z,6.55
2018-12-06T04:11:40.437Z,6.55
2018-12-06T04:14:15.593Z,6.64
2018-12-06T04:16:50.066Z,6.64
2018-12-06T04:19:24.033Z,6.59
2018-12-06T04:21:59.144Z,6.63
2018-12-06T04:24:33.972Z,6.63
2018-12-06T04:27:07.807Z,6.61
2018-12-06T04:29:40.188Z,6.56
2018-12-06T04:32:17.646Z,6.59
2018-12-06T04:34:52.108Z,6.58
2018-12-06T04:37:24.545Z,6.59
2018-12-06T04:39:59.310Z,6.54
2018-12-06T04:45:07.705Z,6.57
2018-12-06T04:50:13.241Z,6.62
2018-12-06T04:52:47.274Z,6.59
2018-12-06T04:55:22.009Z,6.56
2018-12-06T04:57:53.965Z,6.58
2018-12-06T05:00:31.087Z,6.60
2018-12-06T05:03:05.511Z,6.52
2018-12-06T05:05:40.089Z,6.53
2018-12-06T05:08:14.128Z,6.54
2018-12-06T05:10:48.917Z,6.61
2018-12-06T05:13:23.665Z,6.60
2018-12-06T05:15:59.930Z,6.63
2018-12-06T05:18:36.621Z,6.64
2018-12-06T05:21:12.594Z,6.68
2018-12-06T05:23:48.632Z,6.70
2018-12-06T05:26:22.734Z,6.69
2018-12-06T05:28:57.481Z,6.65
2018-12-06T05:31:28.460Z,6.69
2018-12-06T05:33:59.340Z,6.75
2018-12-06T05:36:30.342Z,6.73
2018-12-06T05:39:03.400Z,6.73
2018-12-06T05:41:34.325Z,6.70
2018-12-06T05:44:05.542Z,6.67
2018-12-06T05:46:38.596Z,6.69
2018-12-06T05:49:10.280Z,6.73
2018-12-06T05:51:41.225Z,6.68
2018-12-06T05:54:12.137Z,6.68
2018-12-06T05:56:43.379Z,6.68
2018-12-06T05:59:14.380Z,6.66
2018-12-06T06:01:45.904Z,6.64
2018-12-06T06:04:22.201Z,6.64
2018-12-06T06:06:54.215Z,6.66
2018-12-06T06:09:26.412Z,6.68
2018-12-06T06:12:00.822Z,6.66
2018-12-06T06:14:34.937Z,6.71
2018-12-06T06:17:07.532Z,6.68
2018-12-06T06:19:43.697Z,6.65
2018-12-06T06:22:21.636Z,6.67
2018-12-06T06:24:56.161Z,6.69
2018-12-06T06:27:28.266Z,6.74
2018-12-06T06:30:04.548Z,6.73
2018-12-06T06:32:42.467Z,6.74
2018-12-06T06:35:16.997Z,6.75
2018-12-06T06:37:51.140Z,6.76
2018-12-06T06:40:25.772Z,6.79
2018-12-06T06:42:57.513Z,6.82
2018-12-06T06:45:31.772Z,6.82
2018-12-06T06:48:04.549Z,6.80
2018-12-06T06:50:36.124Z,6.84
2018-12-06T06:53:07.545Z,6.84
2018-12-06T06:55:39.723Z,6.86
2018-12-06T06:58:10.704Z,6.89
2018-12-06T07:00:45.329Z,6.92
2018-12-06T07:03:16.223Z,6.95
2018-12-06T07:05:47.152Z,6.96
2018-12-06T07:08:19.288Z,7.01
2018-12-06T07:10:50.157Z,7.12
2018-12-06T07:13:21.073Z,7.19
2018-12-06T07:15:52.099Z,7.20
2018-12-06T07:18:22.991Z,7.27
2018-12-06T07:20:55.564Z,7.34
2018-12-06T07:23:26.465Z,7.38
2018-12-06T07:25:57.264Z,7.47
2018-12-06T07:28:28.085Z,7.60
2018-12-06T07:30:59.096Z,7.70
2018-12-06T07:33:30.351Z,7.74
2018-12-06T07:36:01.177Z,7.72
2018-12-06T07:38:32.347Z,7.78
2018-12-06T07:41:03.479Z,7.80
2018-12-06T07:43:34.308Z,7.93
2018-12-06T07:46:11.623Z,7.89
2018-12-06T07:48:42.741Z,7.97
2018-12-06T07:51:13.576Z,8.01
2018-12-06T07:53:44.382Z,8.08
2018-12-06T07:56:15.523Z,8.13
2018-12-06T07:58:46.360Z,8.03
2018-12-06T08:01:17.137Z,8.19
2018-12-06T08:03:47.985Z,8.23
2018-12-06T08:06:20.119Z,8.25
2018-12-06T08:08:50.954Z,8.30
2018-12-06T08:11:23.434Z,8.33
2018-12-06T08:13:54.669Z,8.34
2018-12-06T08:16:26.511Z,8.47
2018-12-06T08:18:57.303Z,8.49
2018-12-06T08:21:29.442Z,8.52
2018-12-06T08:24:00.228Z,8.44
2018-12-06T08:26:31.169Z,8.43
2018-12-06T08:29:06.242Z,8.41
2018-12-06T08:31:37.243Z,8.40
2018-12-06T08:34:15.510Z,8.43
2018-12-06T08:36:48.083Z,8.43
2018-12-06T08:39:21.155Z,8.41
2018-12-06T08:41:52.522Z,8.43
2018-12-06T08:44:25.244Z,8.45
2018-12-06T08:46:56.353Z,8.47
2018-12-06T08:49:27.481Z,8.49
2018-12-06T08:51:58.238Z,8.45
2018-12-06T08:54:29.071Z,8.52
2018-12-06T08:57:12.498Z,8.52
2018-12-06T08:59:43.256Z,8.48
2018-12-06T09:02:15.409Z,8.56
2018-12-06T09:04:46.176Z,8.73
2018-12-06T09:07:17.056Z,8.94
2018-12-06T09:09:51.573Z,9.07
2018-12-06T09:12:22.415Z,9.19
2018-12-06T09:14:53.134Z,9.26
2018-12-06T09:17:25.220Z,9.38
2018-12-06T09:19:56.228Z,9.50
2018-12-06T09:22:27.002Z,9.53
2018-12-06T09:24:57.816Z,9.63
2018-12-06T09:27:29.275Z,9.41
2018-12-06T09:30:00.150Z,9.68
2018-12-06T09:32:31.054Z,9.68
2018-12-06T09:35:03.011Z,9.67
2018-12-06T09:37:34.060Z,9.71
2018-12-06T09:40:04.990Z,9.69
2018-12-06T09:42:38.080Z,9.75
2018-12-06T09:45:09.845Z,9.89
2018-12-06T09:47:40.644Z,9.88
2018-12-06T09:50:11.522Z,10.03
2018-12-06T09:52:42.360Z,10.08
2018-12-06T09:55:13.343Z,10.11
2018-12-06T09:57:44.325Z,10.20
2018-12-06T10:00:17.613Z,10.22
2018-12-06T10:02:48.572Z,10.21
2018-12-06T10:11:22.928Z,10.35
2018-12-06T10:14:03.951Z,10.39
2018-12-06T10:17:08.323Z,10.43
2018-12-06T10:19:53.890Z,10.55
2018-12-06T10:22:44.555Z,10.56
2018-12-06T10:25:32.785Z,10.58
2018-12-06T10:28:27.134Z,10.71
2018-12-06T10:31:25.365Z,10.80
2018-12-06T10:34:07.644Z,10.90
2018-12-06T10:36:47.685Z,10.89
2018-12-06T10:39:31.928Z,10.92
2018-12-06T10:42:07.197Z,11.03
2018-12-06T10:44:44.557Z,11.07
2018-12-06T10:47:30.358Z,10.98
2018-12-06T10:50:08.252Z,10.94
2018-12-06T10:52:44.459Z,10.87
2018-12-06T10:55:16.818Z,10.85
2018-12-06T10:57:50.905Z,10.98
2018-12-06T11:00:28.139Z,11.05
2018-12-06T11:03:03.814Z,11.20
2018-12-06T11:05:38.875Z,11.22
2018-12-06T11:08:12.873Z,11.28
2018-12-06T11:10:45.581Z,11.33
2018-12-06T11:13:29.060Z,11.49
2018-12-06T11:16:07.949Z,11.52
2018-12-06T11:21:41.708Z,11.58
2018-12-06T11:24:26.564Z,11.67
2018-12-06T11:27:01.230Z,11.75
2018-12-06T11:35:40.960Z,12.14
2018-12-06T11:38:23.628Z,12.27
2018-12-06T11:41:01.222Z,12.20
2018-12-06T11:43:32.599Z,12.23
2018-12-06T11:46:03.534Z,12.32
2018-12-06T11:48:34.402Z,12.26
2018-12-06T11:51:05.902Z,12.31
2018-12-06T11:53:40.575Z,12.30
2018-12-06T11:56:18.301Z,12.20
2018-12-06T11:58:52.674Z,12.28
2018-12-06T12:01:37.760Z,12.17
2018-12-06T12:04:17.802Z,12.18
2018-12-06T12:09:58.318Z,12.14
2018-12-06T12:15:52.044Z,12.15
2018-12-06T12:21:45.302Z,12.16
2018-12-06T12:24:22.245Z,12.16
2018-12-06T12:27:02.953Z,12.15
2018-12-06T12:29:40.120Z,12.15
2018-12-06T12:32:14.660Z,12.12
2018-12-06T12:34:48.243Z,12.13
2018-12-06T12:37:26.535Z,12.08
2018-12-06T12:40:21.944Z,12.14
2018-12-06T12:43:01.350Z,12.11
2018-12-06T12:45:51.015Z,12.16
2018-12-06T12:48:36.369Z,12.20
2018-12-06T12:51:13.931Z,12.17
2018-12-06T12:54:15.433Z,12.19
2018-12-06T12:56:50.776Z,12.22
2018-12-06T12:59:31.538Z,12.21
2018-12-06T13:02:08.170Z,12.25
2018-12-06T13:04:40.140Z,12.23
2018-12-06T13:07:17.954Z,12.18
2018-12-06T13:09:49.144Z,12.17
2018-12-06T13:12:23.874Z,12.19
2018-12-06T13:14:59.118Z,12.19
2018-12-06T13:17:30.057Z,12.17
2018-12-06T13:20:02.321Z,12.23
2018-12-06T13:22:40.021Z,12.14
2018-12-06T13:25:14.742Z,12.14
2018-12-06T13:27:50.666Z,12.07
2018-12-06T13:33:36.717Z,12.04
2018-12-06T13:36:13.664Z,12.01
2018-12-06T13:38:47.905Z,11.98
2018-12-06T13:41:22.450Z,11.99
2018-12-06T13:43:54.279Z,11.99
2018-12-06T13:46:25.320Z,11.94
2018-12-06T13:48:56.333Z,11.98
2018-12-06T13:51:31.796Z,11.89
2018-12-06T13:54:08.146Z,11.90
2018-12-06T13:56:46.218Z,11.90
2018-12-06T13:59:21.393Z,12.00
2018-12-06T14:01:55.978Z,11.96
2018-12-06T14:04:26.949Z,11.92
2018-12-06T14:06:58.160Z,11.87
2018-12-06T14:09:32.937Z,11.84
2018-12-06T14:15:14.166Z,11.85
2018-12-06T14:17:54.197Z,11.76
2018-12-06T14:20:25.118Z,11.72
2018-12-06T14:22:56.801Z,11.77
2018-12-06T14:25:27.537Z,11.75
2018-12-06T14:27:58.480Z,11.79
2018-12-06T14:30:29.244Z,11.73
2018-12-06T14:33:00.229Z,11.76
2018-12-06T14:35:31.229Z,11.76
2018-12-06T14:38:03.048Z,11.84
2018-12-06T14:40:33.837Z,11.81
2018-12-06T14:43:04.689Z,11.82
2018-12-06T14:45:40.370Z,11.82
2018-12-06T14:48:15.910Z,11.79
2018-12-06T14:50:52.624Z,11.73
2018-12-06T14:53:25.713Z,11.77
2018-12-06T14:55:59.592Z,11.63
2018-12-06T14:58:33.906Z,11.64
2018-12-06T15:01:06.665Z,11.56
2018-12-06T15:03:42.748Z,11.40
2018-12-06T15:06:14.737Z,11.48
2018-12-06T15:08:49.027Z,11.18
2018-12-06T15:11:20.998Z,11.10
2018-12-06T15:13:51.751Z,10.93
2018-12-06T15:16:22.665Z,10.85
2018-12-06T15:18:53.639Z,10.61
2018-12-06T15:21:26.965Z,10.49
2018-12-06T15:23:57.934Z,10.21
2018-12-06T15:26:28.769Z,10.01
2018-12-06T15:28:59.538Z,9.91
2018-12-06T15:31:32.611Z,9.74
2018-12-06T15:34:03.467Z,9.55
2018-12-06T15:36:34.436Z,9.45
2018-12-06T15:39:09.013Z,9.33
2018-12-06T15:41:39.812Z,9.24
2018-12-06T15:44:10.726Z,9.23
2018-12-06T15:46:41.618Z,9.43
2018-12-06T15:49:12.444Z,9.39
2018-12-06T15:51:46.474Z,9.38
2018-12-06T15:54:20.839Z,9.41
2018-12-06T15:56:54.973Z,9.41
2018-12-06T15:59:30.616Z,9.42
2018-12-06T16:02:04.467Z,9.52
2018-12-06T16:04:38.918Z,9.55
2018-12-06T16:07:15.267Z,9.56
2018-12-06T16:09:49.088Z,9.57
2018-12-06T16:12:26.542Z,9.60
2018-12-06T16:15:01.095Z,9.65
2018-12-06T16:17:37.429Z,9.65
2018-12-06T16:20:11.591Z,9.59
2018-12-06T16:22:46.373Z,9.66
2018-12-06T16:25:19.328Z,9.64
2018-12-06T16:27:50.282Z,9.61
2018-12-06T16:30:21.131Z,9.60
2018-12-06T16:32:55.578Z,9.65
2018-12-06T16:35:30.499Z,9.65
2018-12-06T16:38:04.410Z,9.64
2018-12-06T16:40:35.565Z,9.54
2018-12-06T16:43:10.213Z,9.48
2018-12-06T16:45:41.991Z,9.45
2018-12-06T16:48:13.216Z,9.44
2018-12-06T16:50:44.056Z,9.36
2018-12-06T16:53:14.812Z,9.34
2018-12-06T16:55:45.769Z,9.28
2018-12-06T16:58:16.650Z,9.23
2018-12-06T17:00:57.045Z,9.12
2018-12-06T17:03:28.317Z,8.93
2018-12-06T17:06:02.638Z,8.78
2018-12-06T17:08:34.545Z,8.72
2018-12-06T17:11:11.045Z,8.76
2018-12-06T17:13:48.078Z,8.83
2018-12-06T17:16:22.531Z,8.96
2018-12-06T17:18:56.449Z,9.00
2018-12-06T17:21:30.631Z,9.04
2018-12-06T17:24:10.524Z,9.07
2018-12-06T17:26:47.557Z,9.11
2018-12-06T17:29:22.347Z,9.12
2018-12-06T17:31:56.390Z,9.13
2018-12-06T17:34:29.006Z,9.11
2018-12-06T17:37:05.147Z,9.09
2018-12-06T17:39:36.389Z,9.09
2018-12-06T17:42:09.917Z,9.06
2018-12-06T17:44:43.411Z,9.11
2018-12-06T17:47:35.026Z,9.21
2018-12-06T17:53:21.637Z,9.23
2018-12-06T17:55:56.813Z,9.22
2018-12-06T17:58:32.410Z,9.20
2018-12-06T18:01:07.376Z,9.17
2018-12-06T18:03:45.116Z,9.22
2018-12-06T18:06:25.337Z,9.21
2018-12-06T18:09:08.521Z,9.25
2018-12-06T18:11:41.324Z,9.31
2018-12-06T18:14:15.862Z,9.36
2018-12-06T18:16:50.728Z,9.52
2018-12-06T18:19:26.638Z,9.50
2018-12-06T18:22:03.203Z,9.54
2018-12-06T18:24:37.923Z,9.52
2018-12-06T18:27:12.677Z,9.48
2018-12-06T18:29:45.634Z,9.45
2018-12-06T18:32:17.860Z,9.40
2018-12-06T18:35:09.638Z,9.31
2018-12-06T18:37:43.884Z,9.26
2018-12-06T18:40:16.569Z,9.22
2018-12-06T18:42:54.749Z,9.09
2018-12-06T18:45:30.268Z,9.04
2018-12-06T18:48:04.942Z,8.97
2018-12-06T18:53:36.089Z,8.94
2018-12-06T18:56:13.184Z,8.93
2018-12-06T19:01:52.165Z,8.99
2018-12-06T19:07:46.157Z,9.01
2018-12-06T19:23:04.000Z,8.95
2018-12-06T19:25:55.565Z,8.97
2018-12-06T19:32:10.430Z,8.98
2018-12-06T19:34:50.214Z,9.04
2018-12-06T19:40:34.607Z,9.09
2018-12-06T19:49:20.113Z,9.26
2018-12-06T19:54:57.350Z,9.37
2018-12-06T19:57:36.254Z,9.41
2018-12-06T20:00:22.169Z,9.37
2018-12-06T20:02:58.340Z,9.55
2018-12-06T20:14:34.413Z,9.61
2018-12-06T20:17:13.573Z,9.71
2018-12-06T20:19:54.585Z,9.80
2018-12-06T20:22:33.277Z,9.71
2018-12-06T20:28:11.966Z,9.73
2018-12-06T20:30:46.779Z,9.71
2018-12-06T20:33:38.296Z,9.87
2018-12-06T20:38:01.853Z,10.00
2018-12-06T20:53:02.097Z,10.15
2018-12-06T20:58:39.179Z,10.28
2018-12-06T21:01:16.080Z,10.34
2018-12-06T21:03:56.418Z,10.41
2018-12-06T21:06:36.476Z,10.40
2018-12-06T21:09:25.068Z,10.45
2018-12-06T21:12:10.917Z,10.55
2018-12-06T21:26:54.480Z,10.38
2018-12-06T21:29:37.678Z,10.47
2018-12-06T21:32:15.671Z,10.58
2018-12-06T21:34:46.567Z,10.50
2018-12-06T21:37:18.171Z,10.44
2018-12-06T21:39:50.956Z,10.54
2018-12-06T21:42:22.181Z,10.48
2018-12-06T21:44:53.576Z,10.46
2018-12-06T21:47:27.017Z,10.41
2018-12-06T21:50:03.248Z,10.69
2018-12-06T21:55:14.400Z,10.61
2018-12-06T21:57:45.247Z,10.55
2018-12-06T22:00:16.397Z,10.58
2018-12-06T22:02:59.144Z,10.62
2018-12-06T22:05:34.818Z,10.66
2018-12-06T22:11:06.038Z,10.88
2018-12-06T22:13:41.564Z,10.81
2018-12-06T22:16:18.609Z,10.81
2018-12-06T22:18:53.492Z,10.81
2018-12-06T22:21:28.485Z,10.89
2018-12-06T22:27:06.229Z,10.93
2018-12-06T22:29:47.012Z,11.12
2018-12-06T22:32:27.120Z,11.00
2018-12-06T22:35:08.565Z,10.97
2018-12-06T22:37:43.205Z,11.00
2018-12-06T22:40:15.608Z,11.03
2018-12-06T22:42:52.362Z,11.06
2018-12-06T22:45:58.409Z,11.05
2018-12-06T22:48:31.253Z,11.05
2018-12-06T22:51:05.785Z,11.03
2018-12-06T22:53:43.398Z,11.06
2018-12-06T22:56:14.636Z,11.06
2018-12-06T22:58:45.411Z,11.18
2018-12-06T23:01:18.810Z,11.28
2018-12-06T23:03:54.368Z,11.29
2018-12-06T23:06:29.354Z,11.28
2018-12-06T23:09:08.034Z,11.28
2018-12-06T23:11:40.285Z,11.28
2018-12-06T23:14:11.535Z,11.25
2018-12-06T23:16:43.667Z,11.20
2018-12-06T23:19:14.548Z,11.14
2018-12-06T23:21:47.266Z,11.29
2018-12-06T23:24:21.054Z,11.40
2018-12-06T23:26:58.642Z,11.32
2018-12-06T23:29:35.366Z,11.34
2018-12-06T23:32:12.852Z,11.35
2018-12-06T23:34:49.500Z,11.30
2018-12-06T23:37:21.024Z,11.35
2018-12-06T23:39:52.497Z,11.35
2018-12-06T23:42:26.590Z,11.40
2018-12-06T23:44:58.446Z,11.36
2018-12-06T23:47:33.263Z,11.42
2018-12-06T23:50:05.522Z,11.38
2018-12-06T23:52:41.462Z,11.35
2018-12-06T23:55:15.822Z,11.37
2018-12-06T23:57:48.401Z,11.36
